Time;durP1;ratioP1;P1;durP2;ratioP2;P2;SDS_P1;SDS_P2;PMS_P1;PMS_P2;Temp;Humidity;BMP_temperature;BMP_pressure;BME280_temperature;BME280_humidity;BME280_pressure;Samples;Min_cycle;Max_cycle;Signal;HPM_P1;HPM_P2
2022/06/24 00:00:56;;;;;;;;;;;21.90;83.70;;;;;;4979173;28;19914;-74
2022/06/24 00:03:21;;;;;;;;;;;21.80;83.80;;;;;;4979895;28;20431;-75
2022/06/24 00:05:47;;;;;;;;;;;21.80;83.80;;;;;;4977514;28;20000;-75
2022/06/24 00:08:13;;;;;;;;;;;21.70;84.20;;;;;;4978757;28;19910;-75
2022/06/24 00:10:39;;;;;;;;;;;21.70;84.40;;;;;;4980347;28;19913;-75
2022/06/24 00:13:05;;;;;;;;;;;21.60;84.60;;;;;;4980639;28;20320;-75
2022/06/24 00:15:32;;;;;;;;;;;21.60;84.80;;;;;;4977032;28;20279;-75
2022/06/24 00:18:10;;;;;;;;;;;21.60;84.90;;;;;;4978195;28;19913;-76
2022/06/24 00:20:40;;;;;;;;;;;21.50;85.20;;;;;;4978175;28;19906;-75
2022/06/24 00:23:08;;;;;;;;;;;21.50;85.50;;;;;;4978614;28;19906;-76
2022/06/24 00:25:35;;;;;;;;;;;21.50;85.70;;;;;;4975989;28;19918;-76
2022/06/24 00:28:03;;;;;;;;;;;21.50;85.80;;;;;;4974723;28;19913;-75
2022/06/24 00:30:34;;;;;;;;;;;21.50;85.90;;;;;;4960027;28;19934;-76
2022/06/24 00:33:12;;;;;;;;;;;21.50;86.10;;;;;;4960042;28;19906;-75
2022/06/24 00:35:38;;;;;;;;;;;21.40;86.40;;;;;;4960445;28;20279;-76
2022/06/24 00:38:19;;;;;;;;;;;21.40;86.60;;;;;;4959878;28;19906;-75
2022/06/24 00:40:47;;;;;;;;;;;21.50;86.60;;;;;;4958110;28;19915;-75
2022/06/24 00:43:31;;;;;;;;;;;21.40;87.00;;;;;;4958968;28;19913;-75
2022/06/24 00:46:05;;;;;;;;;;;21.30;87.10;;;;;;4958711;28;19977;-75
2022/06/24 00:48:32;;;;;;;;;;;21.20;87.60;;;;;;4957648;28;19961;-76
2022/06/24 00:50:58;;;;;;;;;;;21.20;87.90;;;;;;4958184;28;19917;-74
2022/06/24 00:53:24;;;;;;;;;;;21.10;88.20;;;;;;4958471;28;19911;-74
2022/06/24 00:55:49;;;;;;;;;;;21.10;88.50;;;;;;4958102;29;19906;-74
2022/06/24 00:58:16;;;;;;;;;;;21.10;88.70;;;;;;4956558;28;20454;-74
2022/06/24 01:00:48;;;;;;;;;;;21.00;88.70;;;;;;4957764;29;19997;-74
2022/06/24 01:03:14;;;;;;;;;;;21.00;89.00;;;;;;4972628;28;19907;-74
2022/06/24 01:05:40;;;;;;;;;;;21.00;89.10;;;;;;4958209;29;19965;-74
2022/06/24 01:08:10;;;;;;;;;;;21.00;89.40;;;;;;4958896;29;19907;-74
2022/06/24 01:10:36;;;;;;;;;;;20.90;89.80;;;;;;4957313;28;20013;-75
2022/06/24 01:13:02;;;;;;;;;;;20.90;89.90;;;;;;4973376;28;19913;-74
2022/06/24 01:15:28;;;;;;;;;;;20.90;90.00;;;;;;4958594;29;19907;-74
2022/06/24 01:17:53;;;;;;;;;;;20.90;90.00;;;;;;4957745;29;20379;-75
2022/06/24 01:20:19;;;;;;;;;;;20.80;90.10;;;;;;4957895;29;19957;-72
2022/06/24 01:22:44;;;;;;;;;;;20.80;90.20;;;;;;4971706;28;19906;-72
2022/06/24 01:25:10;;;;;;;;;;;20.80;90.30;;;;;;4957038;28;19906;-72
2022/06/24 01:27:36;;;;;;;;;;;20.70;90.40;;;;;;4957163;29;19913;-71
2022/06/24 01:30:02;;;;;;;;;;;20.70;90.40;;;;;;4956981;29;19914;-72
2022/06/24 01:32:28;;;;;;;;;;;20.70;90.60;;;;;;4957723;28;20004;-71
2022/06/24 01:34:56;;;;;;;;;;;20.70;90.60;;;;;;4960936;29;19906;-72
2022/06/24 01:37:22;;;;;;;;;;;20.70;90.70;;;;;;4959500;28;19946;-72
2022/06/24 01:39:47;;;;;;;;;;;20.70;90.70;;;;;;4960846;29;19993;-71
2022/06/24 01:42:13;;;;;;;;;;;20.60;90.80;;;;;;4960693;29;19950;-73
2022/06/24 01:44:38;;;;;;;;;;;20.60;91.00;;;;;;4960392;29;19987;-72
2022/06/24 01:47:04;;;;;;;;;;;20.60;91.00;;;;;;4960719;29;19911;-73
2022/06/24 01:49:29;;;;;;;;;;;20.60;91.10;;;;;;5000407;22;19921;-73
2022/06/24 01:51:56;;;;;;;;;;;20.50;91.20;;;;;;5017000;28;19955;-73
2022/06/24 01:54:21;;;;;;;;;;;20.50;91.40;;;;;;5017499;28;19944;-73
2022/06/24 01:56:47;;;;;;;;;;;20.50;91.50;;;;;;5016846;28;19905;-73
2022/06/24 01:59:14;;;;;;;;;;;20.40;91.60;;;;;;5017296;28;20285;-72
2022/06/24 02:01:40;;;;;;;;;;;20.30;91.80;;;;;;5017107;28;19906;-73
2022/06/24 02:04:06;;;;;;;;;;;20.30;91.80;;;;;;5017365;28;19909;-73
2022/06/24 02:06:32;;;;;;;;;;;20.30;91.90;;;;;;5016935;28;19940;-74
2022/06/24 02:08:57;;;;;;;;;;;20.30;92.00;;;;;;5016459;28;19905;-73
2022/06/24 02:14:09;;;;;;;;;;;20.30;92.10;;;;;;5018239;28;19913;-73
2022/06/24 02:16:35;;;;;;;;;;;20.30;92.30;;;;;;5021110;28;19928;-72
2022/06/24 02:19:01;;;;;;;;;;;20.30;92.70;;;;;;5032299;28;20023;-72
2022/06/24 02:21:27;;;;;;;;;;;20.30;92.30;;;;;;5031999;28;19912;-72
2022/06/24 02:23:53;;;;;;;;;;;20.30;92.40;;;;;;5018975;28;19905;-72
2022/06/24 02:26:19;;;;;;;;;;;20.20;92.60;;;;;;5018649;28;20004;-73
2022/06/24 02:28:44;;;;;;;;;;;20.20;92.70;;;;;;5016058;28;19956;-73
2022/06/24 02:31:10;;;;;;;;;;;20.20;92.80;;;;;;5017707;28;19912;-73
2022/06/24 02:33:35;;;;;;;;;;;20.10;93.20;;;;;;5019025;28;19988;-72
2022/06/24 02:36:01;;;;;;;;;;;20.10;93.10;;;;;;5016865;28;20428;-73
2022/06/24 02:38:27;;;;;;;;;;;20.10;93.10;;;;;;5016656;28;19906;-73
2022/06/24 02:40:53;;;;;;;;;;;20.10;93.20;;;;;;5016159;28;19938;-74
2022/06/24 02:43:18;;;;;;;;;;;20.10;93.20;;;;;;5015026;28;19956;-73
2022/06/24 02:45:47;;;;;;;;;;;20.10;93.30;;;;;;5020204;28;19909;-73
2022/06/24 02:48:14;;;;;;;;;;;20.00;93.40;;;;;;5025184;28;19912;-73
2022/06/24 02:50:39;;;;;;;;;;;20.00;93.50;;;;;;5016014;28;19913;-73
2022/06/24 02:53:05;;;;;;;;;;;20.00;93.50;;;;;;5016578;28;19911;-73
2022/06/24 02:55:30;;;;;;;;;;;20.00;93.60;;;;;;5014717;28;19999;-74
2022/06/24 02:57:56;;;;;;;;;;;20.00;93.60;;;;;;5015739;28;19956;-74
2022/06/24 03:00:22;;;;;;;;;;;20.00;93.70;;;;;;5015876;28;19906;-73
2022/06/24 03:02:47;;;;;;;;;;;19.90;93.90;;;;;;5015942;28;19905;-73
2022/06/24 03:05:13;;;;;;;;;;;19.90;94.00;;;;;;5015952;28;20244;-73
2022/06/24 03:07:38;;;;;;;;;;;19.90;94.20;;;;;;5015007;28;19906;-74
2022/06/24 03:10:04;;;;;;;;;;;19.90;94.30;;;;;;5015709;28;20310;-73
2022/06/24 03:12:29;;;;;;;;;;;19.90;94.30;;;;;;5015525;28;19959;-74
2022/06/24 03:14:55;;;;;;;;;;;19.90;94.40;;;;;;5015604;28;20410;-74
2022/06/24 03:17:20;;;;;;;;;;;19.90;94.40;;;;;;5015714;28;20003;-73
2022/06/24 03:19:46;;;;;;;;;;;19.90;94.50;;;;;;5015603;28;19959;-73
2022/06/24 03:22:11;;;;;;;;;;;19.90;94.40;;;;;;5016721;28;19905;-72
2022/06/24 03:24:37;;;;;;;;;;;20.00;94.50;;;;;;5024351;28;19905;-72
2022/06/24 03:27:02;;;;;;;;;;;20.00;94.50;;;;;;5015823;28;19909;-72
2022/06/24 03:29:30;;;;;;;;;;;20.00;94.70;;;;;;5015218;28;19983;-72
2022/06/24 03:31:55;;;;;;;;;;;20.00;94.60;;;;;;5015097;28;19912;-73
2022/06/24 03:34:21;;;;;;;;;;;20.00;94.60;;;;;;5015596;28;19909;-73
2022/06/24 03:36:46;;;;;;;;;;;20.00;94.70;;;;;;5014227;28;19949;-73
2022/06/24 03:39:12;;;;;;;;;;;20.00;94.80;;;;;;5015494;28;20327;-72
2022/06/24 03:41:37;;;;;;;;;;;20.10;94.90;;;;;;5015628;28;19905;-71
2022/06/24 03:44:03;;;;;;;;;;;20.10;94.90;;;;;;5014019;28;20361;-72
2022/06/24 03:46:28;;;;;;;;;;;20.10;94.90;;;;;;5013671;28;19909;-72
2022/06/24 03:48:54;;;;;;;;;;;20.20;94.90;;;;;;5014774;28;19909;-73
2022/06/24 03:51:19;;;;;;;;;;;20.20;95.00;;;;;;5014924;28;19908;-72
2022/06/24 03:53:45;;;;;;;;;;;20.20;94.90;;;;;;5015115;28;20296;-73
2022/06/24 03:56:10;;;;;;;;;;;20.30;95.00;;;;;;5013390;28;19916;-73
2022/06/24 03:58:36;;;;;;;;;;;20.30;94.90;;;;;;5013735;28;19910;-73
2022/06/24 04:01:02;;;;;;;;;;;20.40;94.90;;;;;;5014007;28;19999;-72
2022/06/24 04:03:28;;;;;;;;;;;20.40;94.90;;;;;;5015416;28;20262;-72
2022/06/24 04:05:54;;;;;;;;;;;20.50;94.90;;;;;;5014474;28;19959;-73
2022/06/24 04:08:19;;;;;;;;;;;20.50;95.00;;;;;;5014336;28;20326;-73
2022/06/24 04:10:45;;;;;;;;;;;20.50;95.10;;;;;;5014448;28;19917;-72
2022/06/24 04:13:10;;;;;;;;;;;20.40;95.20;;;;;;5014362;28;20379;-73
2022/06/24 04:15:36;;;;;;;;;;;20.40;95.30;;;;;;5014414;28;19936;-73
2022/06/24 04:18:01;;;;;;;;;;;20.40;95.40;;;;;;5014620;28;19991;-72
2022/06/24 04:20:27;;;;;;;;;;;20.40;95.50;;;;;;5014225;28;19905;-73
2022/06/24 04:22:52;;;;;;;;;;;20.40;95.70;;;;;;5014543;28;19906;-72
2022/06/24 04:25:18;;;;;;;;;;;20.40;95.80;;;;;;5014043;28;19909;-72
2022/06/24 04:27:44;;;;;;;;;;;20.40;95.90;;;;;;5014233;28;19909;-72
2022/06/24 04:30:11;;;;;;;;;;;20.50;96.00;;;;;;5014002;28;19917;-73
2022/06/24 04:32:37;;;;;;;;;;;20.50;96.20;;;;;;5014166;28;19921;-73
2022/06/24 04:35:03;;;;;;;;;;;20.60;96.30;;;;;;5019002;28;19913;-72
2022/06/24 04:37:29;;;;;;;;;;;20.70;96.30;;;;;;5022773;28;19906;-73
2022/06/24 04:39:58;;;;;;;;;;;20.80;96.20;;;;;;5015170;28;19905;-73
2022/06/24 04:42:24;;;;;;;;;;;20.90;96.30;;;;;;5013205;28;20278;-71
2022/06/24 04:44:49;;;;;;;;;;;20.90;96.30;;;;;;5014068;28;19955;-72
2022/06/24 04:47:15;;;;;;;;;;;20.90;96.40;;;;;;5014532;28;19957;-71
2022/06/24 04:49:40;;;;;;;;;;;21.00;96.40;;;;;;5013803;28;19937;-71
2022/06/24 04:52:06;;;;;;;;;;;21.00;96.50;;;;;;5013756;28;20278;-72
2022/06/24 04:54:31;;;;;;;;;;;21.00;96.50;;;;;;5014337;28;20004;-73
2022/06/24 04:56:57;;;;;;;;;;;21.10;96.60;;;;;;5014128;28;19906;-73
2022/06/24 04:59:22;;;;;;;;;;;21.10;96.70;;;;;;5014009;28;19906;-74
2022/06/24 05:01:48;;;;;;;;;;;21.10;96.70;;;;;;5014472;28;20441;-73
2022/06/24 05:04:14;;;;;;;;;;;21.20;96.80;;;;;;5014805;28;20304;-73
2022/06/24 05:06:40;;;;;;;;;;;21.20;96.80;;;;;;5014396;28;19976;-73
2022/06/24 05:09:06;;;;;;;;;;;21.30;96.90;;;;;;5017430;28;20286;-71
2022/06/24 05:11:31;;;;;;;;;;;21.40;96.80;;;;;;5020743;28;19996;-71
2022/06/24 05:13:57;;;;;;;;;;;21.40;96.80;;;;;;5027578;28;19929;-72
2022/06/24 05:16:22;;;;;;;;;;;21.60;96.80;;;;;;5018963;28;19964;-72
2022/06/24 05:18:48;;;;;;;;;;;21.70;96.90;;;;;;5017837;28;19913;-72
2022/06/24 05:21:13;;;;;;;;;;;21.80;96.50;;;;;;5018017;28;19906;-71
2022/06/24 05:23:39;;;;;;;;;;;21.90;96.30;;;;;;5018238;28;19905;-72
2022/06/24 05:26:04;;;;;;;;;;;22.00;96.10;;;;;;5017887;28;19913;-73
2022/06/24 05:28:30;;;;;;;;;;;22.10;96.00;;;;;;5016680;28;20024;-73
2022/06/24 05:30:56;;;;;;;;;;;22.20;95.80;;;;;;5017958;28;19901;-73
2022/06/24 05:33:21;;;;;;;;;;;22.30;95.50;;;;;;5018034;28;19909;-73
2022/06/24 05:35:47;;;;;;;;;;;22.30;95.60;;;;;;5017981;28;19905;-73
2022/06/24 05:38:13;;;;;;;;;;;22.40;95.30;;;;;;5016983;28;20277;-73
2022/06/24 05:40:38;;;;;;;;;;;22.50;95.30;;;;;;5017541;28;19905;-72
2022/06/24 05:43:04;;;;;;;;;;;22.50;95.50;;;;;;5017365;28;20321;-72
2022/06/24 05:45:29;;;;;;;;;;;22.60;95.50;;;;;;5017522;28;19905;-73
2022/06/24 05:47:55;;;;;;;;;;;22.70;95.50;;;;;;5020612;28;19913;-73
2022/06/24 05:50:20;;;;;;;;;;;22.70;95.60;;;;;;5026288;28;20288;-73
2022/06/24 05:55:30;;;;;;;;;;;22.90;95.30;;;;;;5017204;28;19912;-73
2022/06/24 05:57:55;;;;;;;;;;;23.00;95.30;;;;;;5016996;28;20050;-73
2022/06/24 06:00:21;;;;;;;;;;;23.20;95.10;;;;;;5017464;28;19949;-75
2022/06/24 06:02:46;;;;;;;;;;;23.30;94.40;;;;;;5017672;28;19948;-72
2022/06/24 06:05:12;;;;;;;;;;;23.40;94.10;;;;;;5017173;28;19905;-72
2022/06/24 06:07:38;;;;;;;;;;;23.40;93.90;;;;;;5017009;28;19996;-74
2022/06/24 06:10:03;;;;;;;;;;;23.50;94.00;;;;;;5017619;28;19911;-75
2022/06/24 06:12:29;;;;;;;;;;;23.60;93.60;;;;;;5017227;28;19905;-73
2022/06/24 06:14:54;;;;;;;;;;;23.60;93.40;;;;;;5015865;28;19906;-73
2022/06/24 06:17:20;;;;;;;;;;;23.70;93.00;;;;;;5016230;28;19909;-73
2022/06/24 06:19:45;;;;;;;;;;;23.70;93.10;;;;;;5016659;28;19906;-75
2022/06/24 06:22:11;;;;;;;;;;;23.80;93.20;;;;;;5016742;28;19957;-74
2022/06/24 06:24:36;;;;;;;;;;;23.80;92.80;;;;;;5016846;28;19909;-74
2022/06/24 06:27:02;;;;;;;;;;;23.70;92.90;;;;;;5017902;28;19909;-72
2022/06/24 06:29:27;;;;;;;;;;;23.80;93.30;;;;;;5017504;28;20350;-72
2022/06/24 06:31:53;;;;;;;;;;;23.80;93.30;;;;;;5016985;28;19906;-73
2022/06/24 06:34:21;;;;;;;;;;;23.90;93.20;;;;;;5016499;28;20332;-72
2022/06/24 06:36:47;;;;;;;;;;;24.10;93.00;;;;;;5016419;28;19912;-73
2022/06/24 06:39:12;;;;;;;;;;;24.20;92.90;;;;;;5016115;28;19905;-72
2022/06/24 06:41:38;;;;;;;;;;;24.40;92.90;;;;;;5016374;28;20259;-72
2022/06/24 06:44:04;;;;;;;;;;;24.50;93.00;;;;;;5016176;28;19913;-72
2022/06/24 06:46:29;;;;;;;;;;;24.60;93.10;;;;;;5016388;28;19910;-73
2022/06/24 06:48:56;;;;;;;;;;;24.70;93.00;;;;;;5015932;28;19913;-72
2022/06/24 06:51:21;;;;;;;;;;;24.80;93.10;;;;;;5016623;28;19909;-73
2022/06/24 06:53:47;;;;;;;;;;;24.80;93.10;;;;;;5014560;28;20418;-74
2022/06/24 06:56:12;;;;;;;;;;;24.90;93.20;;;;;;5016051;28;19952;-73
2022/06/24 06:58:38;;;;;;;;;;;24.90;93.40;;;;;;5019345;28;19909;-71
2022/06/24 07:01:03;;;;;;;;;;;25.10;93.40;;;;;;5024400;28;19996;-70
2022/06/24 07:03:29;;;;;;;;;;;25.20;93.60;;;;;;5015193;28;20286;-70
2022/06/24 07:05:54;;;;;;;;;;;25.20;93.80;;;;;;5015650;28;20003;-71
2022/06/24 07:08:20;;;;;;;;;;;25.20;94.20;;;;;;5015570;28;19909;-70
2022/06/24 07:10:45;;;;;;;;;;;25.20;94.60;;;;;;5015729;28;20274;-71
2022/06/24 07:13:11;;;;;;;;;;;25.20;94.70;;;;;;5015045;28;19906;-71
2022/06/24 07:15:37;;;;;;;;;;;25.20;95.00;;;;;;5015417;28;19905;-71
2022/06/24 07:18:03;;;;;;;;;;;25.30;95.30;;;;;;5015112;28;19979;-71
2022/06/24 07:20:28;;;;;;;;;;;25.40;95.50;;;;;;5015454;28;20379;-71
2022/06/24 07:22:54;;;;;;;;;;;25.50;95.90;;;;;;5015601;28;19906;-71
2022/06/24 07:25:20;;;;;;;;;;;25.50;96.10;;;;;;5015402;28;19963;-70
2022/06/24 07:27:45;;;;;;;;;;;25.60;96.30;;;;;;5015417;28;20331;-71
2022/06/24 07:30:11;;;;;;;;;;;25.70;96.40;;;;;;5014828;28;19915;-73
2022/06/24 07:32:37;;;;;;;;;;;25.70;96.60;;;;;;5015567;28;20355;-73
2022/06/24 07:35:02;;;;;;;;;;;25.70;97.00;;;;;;5021296;28;19927;-74
2022/06/24 07:37:28;;;;;;;;;;;25.80;96.90;;;;;;5024144;28;19913;-73
2022/06/24 07:39:53;;;;;;;;;;;25.80;97.10;;;;;;5015236;28;20052;-74
2022/06/24 07:42:19;;;;;;;;;;;25.80;97.20;;;;;;5015433;28;19905;-74
2022/06/24 07:44:44;;;;;;;;;;;25.90;97.20;;;;;;5015127;28;19991;-73
2022/06/24 07:47:10;;;;;;;;;;;26.00;97.40;;;;;;5016761;28;19920;-73
2022/06/24 07:49:36;;;;;;;;;;;26.10;97.40;;;;;;5050415;22;19925;-72
2022/06/24 07:52:02;;;;;;;;;;;26.10;97.80;;;;;;5015844;28;20354;-72
2022/06/24 07:54:28;;;;;;;;;;;26.10;98.40;;;;;;5017953;28;19906;-73
2022/06/24 07:56:59;;;;;;;;;;;26.20;98.90;;;;;;5018801;28;19909;-72
2022/06/24 07:59:26;;;;;;;;;;;26.20;99.20;;;;;;5017275;28;19905;-73
2022/06/24 08:01:52;;;;;;;;;;;26.30;99.40;;;;;;5016077;28;19912;-72
2022/06/24 08:04:18;;;;;;;;;;;26.30;99.70;;;;;;5017161;28;19905;-73
2022/06/24 08:06:49;;;;;;;;;;;26.30;99.90;;;;;;5015528;28;20294;-72
2022/06/24 08:09:16;;;;;;;;;;;26.50;99.90;;;;;;5016784;28;19906;-74
2022/06/24 08:11:42;;;;;;;;;;;26.60;99.90;;;;;;5016280;28;19985;-73
2022/06/24 08:14:07;;;;;;;;;;;26.70;99.90;;;;;;5016315;28;19905;-72
2022/06/24 08:16:33;;;;;;;;;;;26.80;99.90;;;;;;5014778;28;19956;-72
2022/06/24 08:18:59;;;;;;;;;;;26.90;99.90;;;;;;5016122;28;20054;-72
2022/06/24 08:21:24;;;;;;;;;;;26.80;99.90;;;;;;5015871;28;19909;-72
2022/06/24 08:23:50;;;;;;;;;;;26.70;99.90;;;;;;5016088;28;19905;-72
2022/06/24 08:26:16;;;;;;;;;;;26.80;99.90;;;;;;5015587;28;19917;-71
2022/06/24 08:28:42;;;;;;;;;;;26.90;99.90;;;;;;5016961;28;19905;-71
2022/06/24 08:31:07;;;;;;;;;;;27.00;99.90;;;;;;5017302;28;20278;-71
2022/06/24 08:33:33;;;;;;;;;;;27.00;99.90;;;;;;5016204;28;19913;-71
2022/06/24 08:35:58;;;;;;;;;;;27.00;99.90;;;;;;5014828;28;19905;-71
2022/06/24 08:38:24;;;;;;;;;;;27.10;99.90;;;;;;5015998;28;20000;-72
2022/06/24 08:40:50;;;;;;;;;;;27.20;99.90;;;;;;5016107;28;19911;-72
2022/06/24 08:43:16;;;;;;;;;;;27.40;99.90;;;;;;5016142;28;19912;-71
2022/06/24 08:45:42;;;;;;;;;;;27.50;99.90;;;;;;5014491;28;20278;-72
2022/06/24 08:48:11;;;;;;;;;;;27.50;99.90;;;;;;5014477;28;19914;-72
2022/06/24 08:50:37;;;;;;;;;;;27.60;99.90;;;;;;5014099;28;19959;-72
2022/06/24 08:53:05;;;;;;;;;;;27.70;99.90;;;;;;5012218;28;19910;-71
2022/06/24 08:55:34;;;;;;;;;;;27.70;99.90;;;;;;5005821;28;20012;-72
2022/06/24 08:57:59;;;;;;;;;;;27.80;99.90;;;;;;5016122;28;19919;-70
2022/06/24 09:00:25;;;;;;;;;;;27.70;99.90;;;;;;5015561;28;19905;-71
2022/06/24 09:02:51;;;;;;;;;;;27.70;99.90;;;;;;5015491;28;19905;-71
2022/06/24 09:05:16;;;;;;;;;;;27.70;99.90;;;;;;5014809;28;19905;-72
2022/06/24 09:07:42;;;;;;;;;;;27.90;99.90;;;;;;5015935;28;19910;-72
2022/06/24 09:10:12;;;;;;;;;;;27.90;99.60;;;;;;5014831;28;20343;-72
2022/06/24 09:12:42;;;;;;;;;;;27.90;99.80;;;;;;5015195;28;19912;-71
2022/06/24 09:15:08;;;;;;;;;;;27.80;99.90;;;;;;5014021;28;19905;-71
2022/06/24 09:17:35;;;;;;;;;;;27.80;99.90;;;;;;5030416;28;20238;-71
2022/06/24 09:20:03;;;;;;;;;;;27.70;99.90;;;;;;5029988;28;20271;-73
2022/06/24 09:22:29;;;;;;;;;;;27.70;99.90;;;;;;5015849;28;19905;-74
2022/06/24 09:24:54;;;;;;;;;;;27.80;99.80;;;;;;5008373;28;20317;-73
2022/06/24 09:27:21;;;;;;;;;;;27.80;99.70;;;;;;5014953;28;20421;-74
2022/06/24 09:29:50;;;;;;;;;;;27.90;99.60;;;;;;5017288;28;19913;-74
2022/06/24 09:32:16;;;;;;;;;;;28.10;99.70;;;;;;5010126;28;19953;-74
2022/06/24 09:35:00;;;;;;;;;;;28.10;99.90;;;;;;5016360;28;20359;-75
2022/06/24 09:37:39;;;;;;;;;;;28.00;99.90;;;;;;5018479;28;19906;-73
2022/06/24 09:40:24;;;;;;;;;;;28.10;99.70;;;;;;5019830;28;19920;-74
2022/06/24 09:42:54;;;;;;;;;;;28.00;99.50;;;;;;5015929;28;19909;-73
2022/06/24 09:45:20;;;;;;;;;;;28.10;99.50;;;;;;5016737;28;19956;-74
2022/06/24 09:47:49;;;;;;;;;;;28.10;99.60;;;;;;5017699;28;19910;-74
2022/06/24 09:50:15;;;;;;;;;;;28.30;99.70;;;;;;5020172;28;20000;-74
2022/06/24 09:52:41;;;;;;;;;;;28.40;99.10;;;;;;5022918;28;19952;-73
2022/06/24 09:55:06;;;;;;;;;;;28.30;99.00;;;;;;5022866;28;19906;-73
2022/06/24 09:57:32;;;;;;;;;;;28.20;99.40;;;;;;5021738;28;19905;-74
2022/06/24 10:02:43;;;;;;;;;;;28.20;99.90;;;;;;5022112;28;19912;-74
2022/06/24 10:05:09;;;;;;;;;;;28.00;99.90;;;;;;5021435;28;19913;-74
2022/06/24 10:07:36;;;;;;;;;;;28.00;99.90;;;;;;5022091;28;19909;-74
2022/06/24 10:10:05;;;;;;;;;;;28.00;99.90;;;;;;5022471;28;19913;-74
2022/06/24 10:12:35;;;;;;;;;;;28.00;99.30;;;;;;5022224;28;19986;-74
2022/06/24 10:15:01;;;;;;;;;;;27.80;99.60;;;;;;5024659;28;19905;-74
2022/06/24 10:17:28;;;;;;;;;;;27.80;99.10;;;;;;5029914;28;19912;-74
2022/06/24 10:19:54;;;;;;;;;;;27.60;99.40;;;;;;5031408;28;19916;-73
2022/06/24 10:22:36;;;;;;;;;;;27.40;99.40;;;;;;5031813;28;20031;-73
2022/06/24 10:25:02;;;;;;;;;;;27.30;99.30;;;;;;5023001;28;19913;-73
2022/06/24 10:27:46;;;;;;;;;;;27.20;99.50;;;;;;5024632;28;19909;-73
2022/06/24 10:30:12;;;;;;;;;;;27.20;99.80;;;;;;5028185;28;19905;-75
2022/06/24 10:32:57;;;;;;;;;;;27.40;99.60;;;;;;5019116;28;20421;-73
2022/06/24 10:35:22;;;;;;;;;;;27.20;99.70;;;;;;5017503;28;20282;-74
2022/06/24 10:37:51;;;;;;;;;;;27.20;99.90;;;;;;5019331;28;20004;-73
2022/06/24 10:40:23;;;;;;;;;;;27.20;99.80;;;;;;5017466;28;19992;-74
2022/06/24 10:43:04;;;;;;;;;;;27.30;99.80;;;;;;5018413;28;19905;-73
2022/06/24 10:45:34;;;;;;;;;;;27.50;99.70;;;;;;5012593;28;20284;-73
2022/06/24 10:47:59;;;;;;;;;;;27.60;99.80;;;;;;5007468;28;19905;-73
2022/06/24 10:50:25;;;;;;;;;;;27.80;99.60;;;;;;4998158;28;20361;-72
2022/06/24 10:52:55;;;;;;;;;;;28.00;99.60;;;;;;4998235;28;19912;-73
2022/06/24 10:55:23;;;;;;;;;;;28.10;99.50;;;;;;4998503;28;19923;-73
2022/06/24 10:58:03;;;;;;;;;;;28.30;99.20;;;;;;4998356;28;19906;-72
2022/06/24 11:00:48;;;;;;;;;;;28.30;99.20;;;;;;4998593;28;19925;-72
2022/06/24 11:03:19;;;;;;;;;;;28.20;99.40;;;;;;4998106;28;19912;-73
2022/06/24 11:05:45;;;;;;;;;;;28.10;99.50;;;;;;4998116;28;20314;-73
2022/06/24 11:08:12;;;;;;;;;;;27.90;99.70;;;;;;5002393;28;20004;-73
2022/06/24 11:10:38;;;;;;;;;;;27.80;99.90;;;;;;5004827;28;19906;-73
2022/06/24 11:13:04;;;;;;;;;;;27.60;99.90;;;;;;5005797;28;19917;-72
2022/06/24 11:15:33;;;;;;;;;;;27.50;99.90;;;;;;5006421;28;19913;-72
2022/06/24 11:18:04;;;;;;;;;;;27.40;99.90;;;;;;5007254;28;19906;-73
2022/06/24 11:20:29;;;;;;;;;;;27.30;99.90;;;;;;5003611;28;19940;-73
2022/06/24 11:22:55;;;;;;;;;;;27.40;99.80;;;;;;5018484;28;19906;-74
2022/06/24 11:25:22;;;;;;;;;;;27.50;99.40;;;;;;5002962;28;19906;-73
2022/06/24 11:27:48;;;;;;;;;;;27.60;99.40;;;;;;4999930;28;20390;-72
2022/06/24 11:30:13;;;;;;;;;;;27.60;99.30;;;;;;4999684;28;19910;-73
2022/06/24 11:32:51;;;;;;;;;;;27.70;99.20;;;;;;4999578;28;19912;-72
2022/06/24 11:35:18;;;;;;;;;;;27.80;99.20;;;;;;5000970;28;20433;-73
2022/06/24 11:37:43;;;;;;;;;;;27.90;98.70;;;;;;5015246;28;19956;-73
2022/06/24 11:40:09;;;;;;;;;;;27.80;98.00;;;;;;5003164;28;19906;-73
2022/06/24 11:42:35;;;;;;;;;;;27.60;97.80;;;;;;5004008;28;19951;-73
2022/06/24 11:45:00;;;;;;;;;;;27.50;98.10;;;;;;4998596;28;19913;-73
2022/06/24 11:47:31;;;;;;;;;;;27.30;98.30;;;;;;5006982;28;19913;-72
2022/06/24 11:49:56;;;;;;;;;;;27.30;98.90;;;;;;5013882;28;19913;-72
2022/06/24 11:52:22;;;;;;;;;;;27.30;98.90;;;;;;5015846;28;20267;-72
2022/06/24 11:54:47;;;;;;;;;;;27.40;99.10;;;;;;5011263;28;19910;-73
2022/06/24 11:57:13;;;;;;;;;;;27.50;99.00;;;;;;5014871;28;19909;-72
2022/06/24 11:59:39;;;;;;;;;;;27.30;99.10;;;;;;5015507;28;19912;-74
2022/06/24 12:02:08;;;;;;;;;;;27.30;99.50;;;;;;5015533;28;19921;-72
2022/06/24 12:04:34;;;;;;;;;;;27.10;99.60;;;;;;5014662;28;19913;-72
2022/06/24 12:07:06;;;;;;;;;;;26.80;99.90;;;;;;5013627;28;19913;-72
2022/06/24 12:09:32;;;;;;;;;;;26.70;99.90;;;;;;5014105;28;19992;-73
2022/06/24 12:12:07;;;;;;;;;;;26.40;99.90;;;;;;5014907;28;19948;-73
2022/06/24 12:14:33;;;;;;;;;;;26.20;99.90;;;;;;5013658;28;19997;-72
2022/06/24 12:17:03;;;;;;;;;;;26.00;99.90;;;;;;5015026;28;19941;-72
2022/06/24 12:19:33;;;;;;;;;;;25.90;99.90;;;;;;5014892;28;19905;-72
2022/06/24 12:22:03;;;;;;;;;;;26.00;99.90;;;;;;5017253;28;19913;-73
2022/06/24 12:24:28;;;;;;;;;;;26.00;99.90;;;;;;5018242;28;19955;-73
2022/06/24 12:26:54;;;;;;;;;;;26.10;99.90;;;;;;5012199;28;19921;-73
2022/06/24 12:29:24;;;;;;;;;;;26.30;99.90;;;;;;5005337;28;19906;-73
2022/06/24 12:31:50;;;;;;;;;;;26.40;99.90;;;;;;5013928;28;19912;-73
2022/06/24 12:34:24;;;;;;;;;;;26.40;99.90;;;;;;5016220;28;19905;-73
2022/06/24 12:36:54;;;;;;;;;;;26.30;99.90;;;;;;5016868;28;19906;-72
2022/06/24 12:39:25;;;;;;;;;;;26.30;99.90;;;;;;5017768;28;19905;-72
2022/06/24 12:41:51;;;;;;;;;;;26.30;99.90;;;;;;5017002;28;19955;-73
2022/06/24 12:44:17;;;;;;;;;;;26.40;99.90;;;;;;5016636;28;19905;-74
2022/06/24 12:50:35;;;;;;;;;;;26.90;99.90;;;;;;5017105;28;19932;-72
2022/06/24 12:52:36;;;;;;;;;;;27.00;99.90;;;;;;5007104;28;19909;-73
2022/06/24 12:55:02;;;;;;;;;;;27.20;99.90;;;;;;5016636;28;19956;-72
2022/06/24 12:57:29;;;;;;;;;;;27.20;99.90;;;;;;5016631;28;19909;-72
2022/06/24 12:59:54;;;;;;;;;;;27.10;99.90;;;;;;5014554;28;19910;-73
2022/06/24 13:02:20;;;;;;;;;;;27.10;99.90;;;;;;5014840;28;19913;-71
2022/06/24 13:04:45;;;;;;;;;;;27.20;99.90;;;;;;5015588;28;19906;-71
2022/06/24 13:07:11;;;;;;;;;;;27.30;99.90;;;;;;5015361;28;19909;-71
2022/06/24 13:09:37;;;;;;;;;;;27.30;99.90;;;;;;5015946;28;19905;-71
2022/06/24 13:12:03;;;;;;;;;;;27.30;99.80;;;;;;5011676;28;19910;-71
2022/06/24 13:14:29;;;;;;;;;;;27.30;99.60;;;;;;5016405;28;19912;-71
2022/06/24 13:16:54;;;;;;;;;;;27.30;99.50;;;;;;5010615;28;19913;-72
2022/06/24 13:19:20;;;;;;;;;;;27.20;99.70;;;;;;5011226;28;19912;-71
2022/06/24 13:21:45;;;;;;;;;;;27.30;99.80;;;;;;5015118;28;20270;-71
2022/06/24 13:24:11;;;;;;;;;;;27.40;99.60;;;;;;5015850;28;20405;-71
2022/06/24 13:26:36;;;;;;;;;;;27.40;99.80;;;;;;5015710;28;19910;-72
2022/06/24 13:29:02;;;;;;;;;;;27.70;99.90;;;;;;5016871;28;19956;-72
2022/06/24 13:31:27;;;;;;;;;;;27.90;99.30;;;;;;5019120;28;20406;-70
2022/06/24 13:33:54;;;;;;;;;;;28.20;98.80;;;;;;5019827;28;19996;-71
2022/06/24 13:36:20;;;;;;;;;;;28.50;98.20;;;;;;5016405;28;19909;-72
2022/06/24 13:38:45;;;;;;;;;;;28.50;98.00;;;;;;5020453;28;19912;-72
2022/06/24 13:41:11;;;;;;;;;;;28.60;97.70;;;;;;5020387;28;19909;-71
2022/06/24 13:43:37;;;;;;;;;;;28.50;97.70;;;;;;5017950;28;19952;-71
2022/06/24 13:46:02;;;;;;;;;;;28.50;97.80;;;;;;5020077;28;20381;-71
2022/06/24 13:48:28;;;;;;;;;;;28.30;97.80;;;;;;5019079;28;20283;-71
2022/06/24 13:50:54;;;;;;;;;;;28.20;98.00;;;;;;5017745;28;19955;-73
2022/06/24 13:53:19;;;;;;;;;;;28.10;98.40;;;;;;5021435;28;19906;-73
2022/06/24 13:55:45;;;;;;;;;;;28.00;98.40;;;;;;5021767;28;19927;-73
2022/06/24 13:58:11;;;;;;;;;;;27.90;98.60;;;;;;5020292;28;19905;-73
2022/06/24 14:00:37;;;;;;;;;;;27.80;98.70;;;;;;5022668;28;19905;-74
2022/06/24 14:03:02;;;;;;;;;;;27.80;98.60;;;;;;5023340;28;19909;-74
2022/06/24 14:05:28;;;;;;;;;;;27.70;98.60;;;;;;5021493;28;19984;-73
2022/06/24 14:07:53;;;;;;;;;;;27.80;98.80;;;;;;5016870;28;20326;-73
2022/06/24 14:10:19;;;;;;;;;;;27.90;98.80;;;;;;5015436;28;19909;-72
2022/06/24 14:12:45;;;;;;;;;;;27.90;98.30;;;;;;5016376;28;19910;-73
2022/06/24 14:15:11;;;;;;;;;;;27.80;98.10;;;;;;5016938;28;19913;-73
2022/06/24 14:17:36;;;;;;;;;;;27.70;98.20;;;;;;5017270;28;19909;-74
2022/06/24 14:20:03;;;;;;;;;;;27.70;98.20;;;;;;5018303;28;20325;-74
2022/06/24 14:22:28;;;;;;;;;;;27.70;98.00;;;;;;5014849;28;19909;-74
2022/06/24 14:24:54;;;;;;;;;;;27.80;97.80;;;;;;5018384;28;19972;-74